createdAt,value
2022-08-20T00:01:19.211Z,100.00
2022-08-20T00:03:50.254Z,100.00
2022-08-20T00:06:21.007Z,100.00
2022-08-20T00:08:47.527Z,100.00
2022-08-20T00:11:18.668Z,100.00
2022-08-20T00:13:47.437Z,100.00
2022-08-20T00:16:14.458Z,100.00
2022-08-20T00:18:41.270Z,100.00
2022-08-20T00:21:08.933Z,100.00
2022-08-20T00:23:39.334Z,100.00
2022-08-20T00:26:06.279Z,100.00
2022-08-20T00:28:32.603Z,100.00
2022-08-20T00:30:58.990Z,100.00
2022-08-20T00:33:25.651Z,100.00
2022-08-20T00:35:53.536Z,100.00
2022-08-20T00:38:20.016Z,100.00
2022-08-20T00:40:56.788Z,100.00
2022-08-20T00:43:32.545Z,100.00
2022-08-20T00:46:00.202Z,100.00
2022-08-20T00:48:28.001Z,100.00
2022-08-20T00:50:55.298Z,100.00
2022-08-20T00:53:22.527Z,100.00
2022-08-20T00:55:48.965Z,100.00
2022-08-20T00:58:15.375Z,100.00
2022-08-20T01:00:44.590Z,100.00
2022-08-20T01:03:11.634Z,100.00
2022-08-20T01:05:39.568Z,100.00
2022-08-20T01:08:06.057Z,100.00
2022-08-20T01:10:34.778Z,100.00
2022-08-20T01:13:03.203Z,100.00
2022-08-20T01:15:30.810Z,100.00
2022-08-20T01:17:58.556Z,100.00
2022-08-20T01:20:29.529Z,100.00
2022-08-20T01:23:29.962Z,100.00
2022-08-20T01:25:56.632Z,100.00
2022-08-20T01:28:24.261Z,100.00
2022-08-20T01:30:50.667Z,100.00
2022-08-20T01:33:17.773Z,100.00
2022-08-20T01:35:44.534Z,100.00
2022-08-20T01:38:11.145Z,100.00
2022-08-20T01:40:40.521Z,100.00
2022-08-20T01:43:09.102Z,100.00
2022-08-20T01:45:36.669Z,100.00
2022-08-20T01:48:06.482Z,100.00
2022-08-20T01:50:32.826Z,100.00
2022-08-20T01:52:59.842Z,100.00
2022-08-20T01:55:27.542Z,100.00
2022-08-20T01:57:53.943Z,100.00
2022-08-20T02:00:22.276Z,100.00
2022-08-20T02:02:49.364Z,100.00
2022-08-20T02:05:15.757Z,100.00
2022-08-20T02:07:42.276Z,100.00
2022-08-20T02:10:09.375Z,100.00
2022-08-20T02:12:35.779Z,100.00
2022-08-20T02:15:02.255Z,100.00
2022-08-20T02:17:29.362Z,100.00
2022-08-20T02:19:58.282Z,100.00
2022-08-20T02:22:27.098Z,100.00
2022-08-20T02:24:53.927Z,100.00
2022-08-20T02:27:23.511Z,100.00
2022-08-20T02:29:51.203Z,100.00
2022-08-20T02:32:24.491Z,100.00
2022-08-20T02:35:03.062Z,100.00
2022-08-20T02:37:29.486Z,100.00
2022-08-20T02:39:55.928Z,100.00
2022-08-20T02:42:22.304Z,100.00
2022-08-20T02:44:48.726Z,100.00
2022-08-20T02:47:15.088Z,100.00
2022-08-20T02:49:41.458Z,100.00
2022-08-20T02:52:07.973Z,100.00
2022-08-20T02:54:34.633Z,100.00
2022-08-20T02:57:02.250Z,100.00
2022-08-20T02:59:28.690Z,100.00
2022-08-20T03:01:59.711Z,100.00
2022-08-20T03:04:27.073Z,100.00
2022-08-20T03:06:53.610Z,100.00
2022-08-20T03:09:19.971Z,100.00
2022-08-20T03:11:46.347Z,100.00
2022-08-20T03:14:12.734Z,100.00
2022-08-20T03:16:39.213Z,100.00
2022-08-20T03:19:05.650Z,100.00
2022-08-20T03:21:32.540Z,100.00
2022-08-20T03:23:58.922Z,100.00
2022-08-20T03:26:25.280Z,100.00
2022-08-20T03:28:51.766Z,100.00
2022-08-20T03:31:18.280Z,100.00
2022-08-20T03:33:53.155Z,100.00
2022-08-20T03:36:26.701Z,100.00
2022-08-20T03:38:55.464Z,100.00
2022-08-20T03:41:21.958Z,100.00
2022-08-20T03:43:48.355Z,100.00
2022-08-20T03:46:23.651Z,100.00
2022-08-20T03:48:56.332Z,100.00
2022-08-20T03:51:25.958Z,100.00
2022-08-20T03:53:52.645Z,100.00
2022-08-20T03:56:19.020Z,100.00
2022-08-20T03:58:46.327Z,100.00
2022-08-20T04:01:45.855Z,100.00
2022-08-20T04:03:59.166Z,100.00
2022-08-20T04:06:25.809Z,100.00
2022-08-20T04:08:54.063Z,100.00
2022-08-20T04:11:20.616Z,100.00
2022-08-20T04:13:46.985Z,100.00
2022-08-20T04:16:15.608Z,100.00
2022-08-20T04:18:43.421Z,100.00
2022-08-20T04:21:31.040Z,100.00
2022-08-20T04:23:59.729Z,100.00
2022-08-20T04:26:26.101Z,100.00
2022-08-20T04:28:52.984Z,100.00
2022-08-20T04:31:24.844Z,100.00
2022-08-20T04:33:51.693Z,100.00
2022-08-20T04:36:18.096Z,100.00
2022-08-20T04:38:47.848Z,100.00
2022-08-20T04:41:22.811Z,100.00
2022-08-20T04:43:50.626Z,100.00
2022-08-20T04:46:17.178Z,100.00
2022-08-20T04:48:49.104Z,100.00
2022-08-20T04:51:17.266Z,100.00
2022-08-20T04:53:45.128Z,100.00
2022-08-20T04:56:23.127Z,100.00
2022-08-20T04:58:51.006Z,100.00
2022-08-20T05:01:17.380Z,100.00
2022-08-20T05:03:43.892Z,100.00
2022-08-20T05:06:10.752Z,100.00
2022-08-20T05:08:38.483Z,100.00
2022-08-20T05:11:33.088Z,100.00
2022-08-20T05:13:52.791Z,100.00
2022-08-20T05:16:19.941Z,100.00
2022-08-20T05:18:48.757Z,100.00
2022-08-20T05:21:19.717Z,100.00
2022-08-20T05:23:46.204Z,100.00
2022-08-20T05:26:12.980Z,100.00
2022-08-20T05:28:51.246Z,100.00
2022-08-20T05:31:32.435Z,100.00
2022-08-20T05:34:00.707Z,100.00
2022-08-20T05:36:27.053Z,100.00
2022-08-20T05:38:54.755Z,100.00
2022-08-20T05:41:29.436Z,100.00
2022-08-20T05:43:56.853Z,100.00
2022-08-20T05:46:23.258Z,100.00
2022-08-20T05:48:49.603Z,100.00
2022-08-20T05:51:15.979Z,100.00
2022-08-20T05:53:42.328Z,100.00
2022-08-20T05:56:11.165Z,100.00
2022-08-20T05:58:37.515Z,100.00
2022-08-20T06:01:05.846Z,100.00
2022-08-20T06:03:51.011Z,100.00
2022-08-20T06:06:18.631Z,100.00
2022-08-20T06:09:04.020Z,100.00
2022-08-20T06:11:33.908Z,100.00
2022-08-20T06:14:03.547Z,100.00
2022-08-20T06:16:30.262Z,100.00
2022-08-20T06:18:58.505Z,100.00
2022-08-20T06:21:25.081Z,100.00
2022-08-20T06:23:57.707Z,100.00
2022-08-20T06:26:30.076Z,100.00
2022-08-20T06:28:58.131Z,100.00
2022-08-20T06:31:24.935Z,100.00
2022-08-20T06:33:51.475Z,100.00
2022-08-20T06:36:18.770Z,100.00
2022-08-20T06:38:46.133Z,100.00
2022-08-20T06:41:12.502Z,100.00
2022-08-20T06:43:38.878Z,100.00
2022-08-20T06:46:06.457Z,100.00
2022-08-20T06:48:32.802Z,100.00
2022-08-20T06:50:59.219Z,100.00
2022-08-20T06:53:25.564Z,100.00
2022-08-20T06:55:53.577Z,100.00
2022-08-20T06:58:32.826Z,100.00
2022-08-20T07:01:09.257Z,100.00
2022-08-20T07:03:38.181Z,100.00
2022-08-20T07:06:04.991Z,100.00
2022-08-20T07:08:31.464Z,100.00
2022-08-20T07:10:58.206Z,100.00
2022-08-20T07:13:24.740Z,100.00
2022-08-20T07:15:53.118Z,100.00
2022-08-20T07:18:27.865Z,100.00
2022-08-20T07:20:57.002Z,100.00
2022-08-20T07:23:24.050Z,100.00
2022-08-20T07:25:50.827Z,100.00
2022-08-20T07:28:19.572Z,100.00
2022-08-20T07:31:13.731Z,100.00
2022-08-20T07:33:42.164Z,100.00
2022-08-20T07:36:11.003Z,100.00
2022-08-20T07:38:37.349Z,100.00
2022-08-20T07:41:06.658Z,100.00
2022-08-20T07:43:33.041Z,100.00
2022-08-20T07:46:03.145Z,100.00
2022-08-20T07:48:31.894Z,100.00
2022-08-20T07:51:00.248Z,100.00
2022-08-20T07:53:26.927Z,100.00
2022-08-20T07:55:59.330Z,100.00
2022-08-20T07:58:33.467Z,100.00
2022-08-20T08:01:00.385Z,100.00
2022-08-20T08:03:39.884Z,100.00
2022-08-20T08:06:14.611Z,100.00
2022-08-20T08:08:43.995Z,100.00
2022-08-20T08:11:13.860Z,100.00
2022-08-20T08:13:41.046Z,100.00
2022-08-20T08:16:17.029Z,100.00
2022-08-20T08:18:48.801Z,100.00
2022-08-20T08:21:15.449Z,100.00
2022-08-20T08:23:44.349Z,100.00
2022-08-20T08:26:18.791Z,100.00
2022-08-20T08:28:45.838Z,100.00
2022-08-20T08:31:12.691Z,100.00
2022-08-20T08:33:40.954Z,100.00
2022-08-20T08:36:09.885Z,100.00
2022-08-20T08:38:37.854Z,100.00
2022-08-20T08:41:08.260Z,100.00
2022-08-20T08:43:34.840Z,100.00
2022-08-20T08:46:05.364Z,100.00
2022-08-20T08:48:33.816Z,100.00
2022-08-20T08:51:00.358Z,100.00
2022-08-20T08:59:46.200Z,100.00
2022-08-20T09:02:28.219Z,100.00
2022-08-20T09:04:59.394Z,100.00
2022-08-20T09:07:32.671Z,100.00
2022-08-20T09:09:59.879Z,100.00
2022-08-20T09:12:29.500Z,100.00
2022-08-20T09:14:55.956Z,100.00
2022-08-20T09:17:25.858Z,100.00
2022-08-20T09:20:03.216Z,100.00
2022-08-20T09:22:47.233Z,100.00
2022-08-20T09:25:34.112Z,100.00
2022-08-20T09:28:17.749Z,100.00
2022-08-20T09:30:46.700Z,100.00
2022-08-20T09:33:13.441Z,100.00
2022-08-20T09:35:40.803Z,100.00
2022-08-20T09:38:07.337Z,100.00
2022-08-20T09:40:33.816Z,100.00
2022-08-20T09:43:00.850Z,100.00
2022-08-20T09:45:27.372Z,100.00
2022-08-20T09:48:10.309Z,100.00
2022-08-20T09:50:37.507Z,100.00
2022-08-20T09:53:04.505Z,100.00
2022-08-20T09:55:31.007Z,100.00
2022-08-20T09:57:57.926Z,100.00
2022-08-20T10:00:24.643Z,100.00
2022-08-20T10:02:51.157Z,100.00
2022-08-20T10:05:17.658Z,100.00
2022-08-20T10:07:46.102Z,100.00
2022-08-20T10:10:13.173Z,100.00
2022-08-20T10:12:41.499Z,100.00
2022-08-20T10:15:08.270Z,100.00
2022-08-20T10:17:37.047Z,100.00
2022-08-20T10:20:04.003Z,100.00
2022-08-20T10:22:32.676Z,100.00
2022-08-20T10:24:59.110Z,100.00
2022-08-20T10:27:25.603Z,100.00
2022-08-20T10:29:52.046Z,100.00
2022-08-20T10:32:22.718Z,100.00
2022-08-20T10:34:49.251Z,100.00
2022-08-20T10:37:22.179Z,100.00
2022-08-20T10:39:48.547Z,100.00
2022-08-20T10:42:15.082Z,100.00
2022-08-20T10:44:41.627Z,100.00
2022-08-20T10:47:24.651Z,100.00
2022-08-20T10:49:51.539Z,100.00
2022-08-20T10:52:17.920Z,100.00
2022-08-20T10:54:44.452Z,100.00
2022-08-20T10:57:15.698Z,100.00
2022-08-20T10:59:42.594Z,100.00
2022-08-20T11:02:11.608Z,100.00
2022-08-20T11:04:38.076Z,100.00
2022-08-20T11:07:49.843Z,100.00
2022-08-20T11:10:20.659Z,100.00
2022-08-20T11:12:47.194Z,100.00
2022-08-20T11:15:14.579Z,100.00
2022-08-20T11:17:45.012Z,100.00
2022-08-20T11:20:15.254Z,100.00
2022-08-20T11:22:44.892Z,100.00
2022-08-20T11:25:11.438Z,100.00
2022-08-20T11:27:41.040Z,100.00
2022-08-20T11:30:08.683Z,100.00
2022-08-20T11:32:38.012Z,100.00
2022-08-20T11:35:24.462Z,100.00
2022-08-20T11:37:51.895Z,100.00
2022-08-20T11:40:18.974Z,100.00
2022-08-20T11:43:11.162Z,100.00
2022-08-20T11:45:37.423Z,100.00
2022-08-20T11:48:04.671Z,100.00
2022-08-20T11:50:31.137Z,100.00
2022-08-20T11:52:59.105Z,100.00
2022-08-20T11:55:30.620Z,100.00
2022-08-20T11:58:00.413Z,100.00
2022-08-20T12:00:31.946Z,100.00
2022-08-20T12:03:05.607Z,100.00
2022-08-20T12:05:36.991Z,100.00
2022-08-20T12:08:04.097Z,100.00
2022-08-20T12:10:30.773Z,100.00
2022-08-20T12:12:57.492Z,100.00
2022-08-20T12:15:24.286Z,100.00
2022-08-20T12:17:53.094Z,100.00
2022-08-20T12:20:21.174Z,100.00
2022-08-20T12:22:47.598Z,100.00
2022-08-20T12:25:14.458Z,100.00
2022-08-20T12:27:41.506Z,100.00
2022-08-20T12:30:12.408Z,100.00
2022-08-20T12:32:39.288Z,100.00
2022-08-20T12:35:06.667Z,100.00
2022-08-20T12:37:33.176Z,100.00
2022-08-20T12:40:00.420Z,100.00
2022-08-20T12:42:27.213Z,100.00
2022-08-20T12:44:53.737Z,100.00
2022-08-20T12:47:27.692Z,98.08
2022-08-20T12:49:55.495Z,97.17
2022-08-20T12:52:22.564Z,100.00
2022-08-20T12:54:49.418Z,100.00
2022-08-20T12:57:32.444Z,99.46
2022-08-20T13:00:00.272Z,89.03
2022-08-20T13:02:26.936Z,82.66
2022-08-20T13:04:53.417Z,77.57
2022-08-20T13:07:21.005Z,80.65
2022-08-20T13:09:49.779Z,88.95
2022-08-20T13:12:16.411Z,92.87
2022-08-20T13:14:42.890Z,100.00
2022-08-20T13:17:09.299Z,100.00
2022-08-20T13:19:36.902Z,100.00
2022-08-20T13:22:03.713Z,100.00
2022-08-20T13:24:30.045Z,94.25
2022-08-20T13:27:03.714Z,100.00
2022-08-20T13:29:30.068Z,100.00
2022-08-20T13:31:56.581Z,87.23
2022-08-20T13:34:22.921Z,84.00
2022-08-20T13:36:49.380Z,90.17
2022-08-20T13:39:15.851Z,91.67
2022-08-20T13:41:43.569Z,92.67
2022-08-20T13:44:10.769Z,94.41
2022-08-20T13:46:37.087Z,100.00
2022-08-20T13:49:03.426Z,91.55
2022-08-20T13:51:30.605Z,78.29
2022-08-20T13:53:57.257Z,87.95
2022-08-20T13:56:23.619Z,73.57
2022-08-20T13:58:50.101Z,71.79
2022-08-20T14:01:19.498Z,65.52
2022-08-20T14:03:46.522Z,61.65
2022-08-20T14:06:13.210Z,62.19
2022-08-20T14:08:39.553Z,63.11
2022-08-20T14:11:05.996Z,63.29
2022-08-20T14:13:32.445Z,65.74
2022-08-20T14:15:58.893Z,72.09
2022-08-20T14:18:25.246Z,78.54
2022-08-20T14:20:51.629Z,75.32
2022-08-20T14:23:17.948Z,78.08
2022-08-20T14:25:47.864Z,79.76
2022-08-20T14:28:24.058Z,71.41
2022-08-20T14:30:53.382Z,59.62
2022-08-20T14:33:19.904Z,57.55
2022-08-20T14:35:46.385Z,57.48
2022-08-20T14:38:12.723Z,64.30
2022-08-20T14:40:39.064Z,62.56
2022-08-20T14:43:05.487Z,63.43
2022-08-20T14:45:31.930Z,64.13
2022-08-20T14:47:58.323Z,65.18
2022-08-20T14:50:25.132Z,65.22
2022-08-20T14:52:51.914Z,64.63
2022-08-20T14:55:19.157Z,66.74
2022-08-20T14:57:45.712Z,66.88
2022-08-20T15:00:18.033Z,66.66
2022-08-20T15:02:44.986Z,71.97
2022-08-20T15:05:11.355Z,65.48
2022-08-20T15:07:39.438Z,62.71
2022-08-20T15:10:07.245Z,61.06
2022-08-20T15:12:35.219Z,61.46
2022-08-20T15:15:13.459Z,57.36
2022-08-20T15:17:49.150Z,55.21
2022-08-20T15:20:20.456Z,53.98
2022-08-20T15:22:47.622Z,49.82
2022-08-20T15:25:18.037Z,47.56
2022-08-20T15:27:47.651Z,48.42
2022-08-20T15:30:16.160Z,50.50
2022-08-20T15:32:51.424Z,49.08
2022-08-20T15:35:21.294Z,52.33
2022-08-20T15:37:50.731Z,51.88
2022-08-20T15:40:22.502Z,53.03
2022-08-20T15:42:50.904Z,51.72
2022-08-20T15:45:21.513Z,50.57
2022-08-20T15:48:07.225Z,49.91
2022-08-20T15:50:40.890Z,49.10
2022-08-20T15:53:09.806Z,46.75
2022-08-20T15:55:37.052Z,47.60
2022-08-20T15:58:23.012Z,48.53
2022-08-20T16:01:24.519Z,48.54
2022-08-20T16:03:51.912Z,49.58
2022-08-20T16:06:19.445Z,49.33
2022-08-20T16:09:04.259Z,50.69
2022-08-20T16:11:42.804Z,49.89
2022-08-20T16:14:22.051Z,49.96
2022-08-20T16:16:48.491Z,48.34
2022-08-20T16:19:16.703Z,46.78
2022-08-20T16:21:43.341Z,46.34
2022-08-20T16:24:12.902Z,46.84
2022-08-20T16:27:01.163Z,45.48
2022-08-20T16:29:33.049Z,46.70
2022-08-20T16:32:00.714Z,46.85
2022-08-20T16:34:33.342Z,49.71
2022-08-20T16:37:03.563Z,48.95
2022-08-20T16:39:41.720Z,48.79
2022-08-20T16:42:08.346Z,51.20
2022-08-20T16:44:35.840Z,51.57
2022-08-20T16:47:43.526Z,54.96
2022-08-20T16:50:11.691Z,61.74
2022-08-20T16:52:39.874Z,57.52
2022-08-20T16:55:06.432Z,54.89
2022-08-20T16:57:32.874Z,55.05
2022-08-20T17:00:16.902Z,55.33
2022-08-20T17:02:56.353Z,57.58
2022-08-20T17:05:23.857Z,59.12
2022-08-20T17:07:57.315Z,56.89
2022-08-20T17:10:27.243Z,57.18
2022-08-20T17:12:59.754Z,56.65
2022-08-20T17:15:28.111Z,55.89
2022-08-20T17:17:55.763Z,56.46
2022-08-20T17:20:23.170Z,58.37
2022-08-20T17:22:51.111Z,56.61
2022-08-20T17:25:18.929Z,57.30
2022-08-20T17:27:45.533Z,57.74
2022-08-20T17:30:20.888Z,57.91
2022-08-20T17:32:58.016Z,62.10
2022-08-20T17:35:29.676Z,57.40
2022-08-20T17:37:56.107Z,58.25
2022-08-20T17:40:25.546Z,57.86
2022-08-20T17:42:52.962Z,58.17
2022-08-20T17:45:23.541Z,60.35
2022-08-20T17:47:50.025Z,58.66
2022-08-20T17:50:21.146Z,59.06
2022-08-20T17:52:55.746Z,61.86
2022-08-20T17:55:22.284Z,66.64
2022-08-20T17:57:49.917Z,69.31
2022-08-20T18:00:23.146Z,71.46
2022-08-20T18:02:51.123Z,69.49
2022-08-20T18:05:21.046Z,68.91
2022-08-20T18:08:06.714Z,72.39
2022-08-20T18:10:34.438Z,70.44
2022-08-20T18:13:13.074Z,73.08
2022-08-20T18:16:01.100Z,71.38
2022-08-20T18:18:31.662Z,71.60
2022-08-20T18:21:17.360Z,79.84
2022-08-20T18:23:52.022Z,84.20
2022-08-20T18:26:27.577Z,87.66
2022-08-20T18:28:57.155Z,87.51
2022-08-20T18:31:27.149Z,95.74
2022-08-20T18:33:53.563Z,94.42
2022-08-20T18:36:19.896Z,98.40
2022-08-20T18:39:15.589Z,100.00
2022-08-20T18:42:01.713Z,100.00
2022-08-20T18:44:28.126Z,100.00
2022-08-20T18:46:56.511Z,100.00
2022-08-20T18:49:34.423Z,100.00
2022-08-20T18:52:10.729Z,100.00
2022-08-20T18:54:37.259Z,100.00
2022-08-20T18:57:03.846Z,100.00
2022-08-20T18:59:30.185Z,100.00
2022-08-20T19:01:56.727Z,100.00
2022-08-20T19:04:28.756Z,100.00
2022-08-20T19:06:58.213Z,100.00
2022-08-20T19:09:27.662Z,100.00
2022-08-20T19:12:12.804Z,100.00
2022-08-20T19:14:57.856Z,100.00
2022-08-20T19:17:25.421Z,100.00
2022-08-20T19:20:01.640Z,100.00
2022-08-20T19:22:30.491Z,100.00
2022-08-20T19:24:58.663Z,100.00
2022-08-20T19:27:25.515Z,100.00
2022-08-20T19:29:57.109Z,100.00
2022-08-20T19:32:31.015Z,100.00
2022-08-20T19:35:01.569Z,100.00
2022-08-20T19:37:39.804Z,100.00
2022-08-20T19:40:20.138Z,100.00
2022-08-20T19:42:46.760Z,100.00
2022-08-20T19:45:18.787Z,100.00
2022-08-20T19:48:04.368Z,100.00
2022-08-20T19:50:36.814Z,100.00
2022-08-20T19:53:08.256Z,100.00
2022-08-20T19:55:35.893Z,100.00
2022-08-20T19:58:04.838Z,100.00
2022-08-20T20:00:37.365Z,100.00
2022-08-20T20:03:15.202Z,100.00
2022-08-20T20:05:57.359Z,100.00
2022-08-20T20:08:24.422Z,100.00
2022-08-20T20:10:54.929Z,100.00
2022-08-20T20:13:22.104Z,100.00
2022-08-20T20:15:52.437Z,100.00
2022-08-20T20:18:18.793Z,100.00
2022-08-20T20:20:55.907Z,100.00
2022-08-20T20:23:28.284Z,100.00
2022-08-20T20:26:16.527Z,100.00
2022-08-20T20:28:45.864Z,100.00
2022-08-20T20:31:28.337Z,100.00
2022-08-20T20:33:55.686Z,100.00
2022-08-20T20:36:36.204Z,100.00
2022-08-20T20:39:11.224Z,100.00
2022-08-20T20:41:40.194Z,100.00
2022-08-20T20:44:07.892Z,100.00
2022-08-20T20:46:37.677Z,100.00
2022-08-20T20:49:23.381Z,100.00
2022-08-20T20:52:03.915Z,100.00
2022-08-20T20:54:30.241Z,100.00
2022-08-20T20:57:04.819Z,100.00
2022-08-20T20:59:31.786Z,100.00
2022-08-20T21:02:00.481Z,100.00
2022-08-20T21:04:29.549Z,100.00
2022-08-20T21:06:58.794Z,100.00
2022-08-20T21:09:28.414Z,100.00
2022-08-20T21:11:54.793Z,100.00
2022-08-20T21:14:21.201Z,100.00
2022-08-20T21:16:47.692Z,100.00
2022-08-20T21:19:16.292Z,100.00
2022-08-20T21:21:42.790Z,100.00
2022-08-20T21:24:14.317Z,100.00
2022-08-20T21:26:40.677Z,100.00
2022-08-20T21:29:07.442Z,100.00
2022-08-20T21:31:34.516Z,100.00
2022-08-20T21:34:01.066Z,100.00
2022-08-20T21:36:27.509Z,100.00
2022-08-20T21:38:53.871Z,100.00
2022-08-20T21:41:29.931Z,100.00
2022-08-20T21:43:57.217Z,100.00
2022-08-20T21:46:30.275Z,100.00
2022-08-20T21:48:59.029Z,100.00
2022-08-20T21:51:27.952Z,100.00
2022-08-20T21:53:54.773Z,100.00
2022-08-20T21:56:22.937Z,100.00
2022-08-20T21:58:49.330Z,100.00
2022-08-20T22:01:16.899Z,100.00
2022-08-20T22:03:49.596Z,100.00
2022-08-20T22:06:22.483Z,100.00
2022-08-20T22:08:51.122Z,100.00
2022-08-20T22:11:22.558Z,100.00
2022-08-20T22:13:48.865Z,100.00
2022-08-20T22:16:18.664Z,100.00
2022-08-20T22:18:45.455Z,100.00
2022-08-20T22:21:14.284Z,100.00
2022-08-20T22:23:40.643Z,100.00
2022-08-20T22:26:09.489Z,100.00
2022-08-20T22:28:38.216Z,100.00
2022-08-20T22:31:04.848Z,100.00
2022-08-20T22:33:33.751Z,100.00
2022-08-20T22:36:06.428Z,100.00
2022-08-20T22:38:32.952Z,100.00
2022-08-20T22:41:09.404Z,100.00
2022-08-20T22:43:46.294Z,100.00
2022-08-20T22:46:23.999Z,100.00
2022-08-20T22:48:52.784Z,100.00
2022-08-20T22:51:23.322Z,100.00
2022-08-20T22:53:49.710Z,100.00
2022-08-20T22:56:21.645Z,100.00
2022-08-20T22:58:50.066Z,100.00
2022-08-20T23:01:17.161Z,100.00
2022-08-20T23:03:43.516Z,100.00
2022-08-20T23:06:09.983Z,100.00
2022-08-20T23:08:36.704Z,100.00
2022-08-20T23:11:03.030Z,100.00
2022-08-20T23:13:29.332Z,100.00
2022-08-20T23:15:55.745Z,100.00
2022-08-20T23:18:22.095Z,100.00
2022-08-20T23:20:50.761Z,100.00
2022-08-20T23:23:17.149Z,100.00
2022-08-20T23:25:43.497Z,100.00
2022-08-20T23:28:09.973Z,100.00
2022-08-20T23:30:36.410Z,100.00
2022-08-20T23:33:03.013Z,100.00
2022-08-20T23:35:29.832Z,100.00
2022-08-20T23:37:58.630Z,100.00
2022-08-20T23:40:28.241Z,100.00
2022-08-20T23:42:54.938Z,100.00
2022-08-20T23:45:21.731Z,100.00
2022-08-20T23:47:48.079Z,100.00
2022-08-20T23:50:15.387Z,100.00
2022-08-20T23:52:41.858Z,100.00
2022-08-20T23:55:08.432Z,100.00
2022-08-20T23:57:34.879Z,100.00
